createdAt,value
2022-10-01T00:02:14.578Z,100139.88
2022-10-01T00:04:40.881Z,100118.53
2022-10-01T00:07:08.555Z,100097.78
2022-10-01T00:09:34.843Z,100103.28
2022-10-01T00:12:01.197Z,100088.69
2022-10-01T00:14:27.572Z,100095.66
2022-10-01T00:16:54.056Z,100082.50
2022-10-01T00:19:20.417Z,100094.00
2022-10-01T00:21:46.725Z,100095.56
2022-10-01T00:24:14.376Z,100090.69
2022-10-01T00:26:41.894Z,100073.91
2022-10-01T00:29:11.267Z,100067.16
2022-10-01T00:31:38.159Z,100052.19
2022-10-01T00:34:04.824Z,100037.88
2022-10-01T00:36:31.457Z,100027.13
2022-10-01T00:38:58.095Z,100025.38
2022-10-01T00:41:25.831Z,100005.97
2022-10-01T00:43:55.377Z,100011.19
2022-10-01T00:46:24.564Z,100032.34
2022-10-01T00:48:55.408Z,100037.69
2022-10-01T00:51:21.711Z,100044.66
2022-10-01T00:53:48.039Z,100041.69
2022-10-01T00:56:14.350Z,100055.56
2022-10-01T00:58:42.179Z,100049.63
2022-10-01T01:01:08.547Z,100054.19
2022-10-01T01:03:34.905Z,100046.88
2022-10-01T01:06:01.210Z,100048.97
2022-10-01T01:08:27.506Z,100048.16
2022-10-01T01:11:00.263Z,100044.31
2022-10-01T01:13:32.369Z,100040.63
2022-10-01T01:16:03.342Z,100044.66
2022-10-01T01:18:33.910Z,100049.97
2022-10-01T01:21:06.524Z,100042.22
2022-10-01T01:23:54.441Z,100042.56
2022-10-01T01:26:27.519Z,100068.59
2022-10-01T01:28:57.700Z,100072.59
2022-10-01T01:31:27.973Z,100050.25
2022-10-01T01:33:55.832Z,100037.16
2022-10-01T01:36:24.854Z,100044.22
2022-10-01T01:38:52.030Z,100038.03
2022-10-01T01:41:19.316Z,100044.66
2022-10-01T01:43:47.868Z,100029.09
2022-10-01T01:46:15.566Z,100018.53
2022-10-01T01:48:42.540Z,100008.44
2022-10-01T01:51:11.977Z,99992.19
2022-10-01T01:53:38.855Z,99986.94
2022-10-01T01:56:05.693Z,99974.66
2022-10-01T01:58:32.510Z,99967.50
2022-10-01T02:00:58.805Z,99967.16
2022-10-01T02:03:27.554Z,99955.22
2022-10-01T02:05:58.396Z,99945.41
2022-10-01T02:08:31.168Z,99940.75
2022-10-01T02:11:07.860Z,99960.19
2022-10-01T02:13:38.309Z,99963.94
2022-10-01T02:16:11.235Z,99945.97
2022-10-01T02:18:41.011Z,99938.28
2022-10-01T02:21:10.502Z,99922.63
2022-10-01T02:23:40.439Z,99926.47
2022-10-01T02:26:08.854Z,99925.16
2022-10-01T02:28:37.141Z,99929.94
2022-10-01T02:31:04.145Z,99925.63
2022-10-01T02:33:32.771Z,99927.47
2022-10-01T02:36:02.253Z,99922.78
2022-10-01T02:38:29.208Z,99922.63
2022-10-01T02:41:00.549Z,99919.03
2022-10-01T02:43:28.604Z,99917.19
2022-10-01T02:45:56.341Z,99920.78
2022-10-01T02:48:22.663Z,99905.38
2022-10-01T02:50:51.005Z,99896.84
2022-10-01T02:53:21.131Z,99890.31
2022-10-01T02:55:48.571Z,99892.09
2022-10-01T02:58:14.856Z,99890.31
2022-10-01T03:00:41.141Z,99883.75
2022-10-01T03:03:07.447Z,99889.25
2022-10-01T03:05:33.738Z,99870.28
2022-10-01T03:08:00.204Z,99861.84
2022-10-01T03:10:27.938Z,99849.00
2022-10-01T03:12:54.228Z,99849.44
2022-10-01T03:15:20.533Z,99847.53
2022-10-01T03:17:50.291Z,99845.22
2022-10-01T03:20:16.741Z,99862.09
2022-10-01T03:22:44.263Z,99869.63
2022-10-01T03:25:10.558Z,99862.84
2022-10-01T03:27:38.191Z,99866.75
2022-10-01T03:30:04.829Z,99852.47
2022-10-01T03:32:31.175Z,99852.91
2022-10-01T03:34:57.455Z,99846.41
2022-10-01T03:37:23.778Z,99847.25
2022-10-01T03:39:50.135Z,99846.47
2022-10-01T03:42:16.502Z,99846.59
2022-10-01T03:44:44.194Z,99847.66
2022-10-01T03:47:10.773Z,99854.63
2022-10-01T03:49:37.060Z,99850.09
2022-10-01T03:52:04.040Z,99858.25
2022-10-01T03:54:30.348Z,99849.25
2022-10-01T03:56:56.766Z,99845.28
2022-10-01T03:59:23.352Z,99850.84
2022-10-01T04:01:51.069Z,99856.38
2022-10-01T04:04:17.441Z,99850.25
2022-10-01T04:06:43.769Z,99861.72
2022-10-01T04:09:10.061Z,99856.75
2022-10-01T04:11:36.903Z,99863.63
2022-10-01T04:14:03.351Z,99852.69
2022-10-01T04:16:29.694Z,99858.84
2022-10-01T04:18:57.317Z,99879.13
2022-10-01T04:21:23.610Z,99872.78
2022-10-01T04:23:49.900Z,99871.78
2022-10-01T04:26:16.199Z,99873.06
2022-10-01T04:28:42.488Z,99867.56
2022-10-01T04:31:08.861Z,99874.91
2022-10-01T04:33:35.190Z,99891.09
2022-10-01T04:36:03.013Z,99877.94
2022-10-01T04:38:29.325Z,99865.63
2022-10-01T04:40:55.616Z,99882.78
2022-10-01T04:43:21.937Z,99884.25
2022-10-01T04:45:48.214Z,99891.47
2022-10-01T04:48:14.491Z,99889.00
2022-10-01T04:50:40.807Z,99889.22
2022-10-01T04:53:08.421Z,99876.94
2022-10-01T04:55:34.794Z,99882.31
2022-10-01T04:58:01.073Z,99894.31
2022-10-01T05:00:27.337Z,99893.72
2022-10-01T05:02:53.861Z,99888.41
2022-10-01T05:05:21.334Z,99889.84
2022-10-01T05:07:48.023Z,99879.47
2022-10-01T05:10:17.396Z,99891.94
2022-10-01T05:12:43.791Z,99894.59
2022-10-01T05:15:10.592Z,99888.63
2022-10-01T05:17:36.860Z,99890.66
2022-10-01T05:20:03.718Z,99895.16
2022-10-01T05:22:30.061Z,99891.13
2022-10-01T05:24:56.372Z,99899.09
2022-10-01T05:27:23.996Z,99903.41
2022-10-01T05:29:50.252Z,99898.28
2022-10-01T05:32:16.548Z,99903.78
2022-10-01T05:34:42.837Z,99907.09
2022-10-01T05:37:09.083Z,99915.34
2022-10-01T05:39:35.361Z,99913.28
2022-10-01T05:42:06.190Z,99923.34
2022-10-01T05:44:34.276Z,99919.44
2022-10-01T05:47:00.557Z,99917.88
2022-10-01T05:49:26.816Z,99921.19
2022-10-01T05:51:53.111Z,99927.13
2022-10-01T05:54:19.378Z,99934.31
2022-10-01T05:56:45.802Z,99935.94
2022-10-01T05:59:12.077Z,99946.59
2022-10-01T06:01:39.793Z,99936.41
2022-10-01T06:04:06.147Z,99936.41
2022-10-01T06:06:32.436Z,99943.25
2022-10-01T06:08:59.191Z,99947.75
2022-10-01T06:11:25.443Z,99956.75
2022-10-01T06:13:51.735Z,99956.19
2022-10-01T06:16:18.367Z,99957.22
2022-10-01T06:18:46.710Z,99966.47
2022-10-01T06:21:13.002Z,99962.81
2022-10-01T06:23:39.289Z,99966.91
2022-10-01T06:26:05.905Z,99962.41
2022-10-01T06:28:32.406Z,99967.75
2022-10-01T06:31:01.029Z,99974.72
2022-10-01T06:33:27.310Z,99967.38
2022-10-01T06:35:54.949Z,99969.84
2022-10-01T06:38:22.215Z,99978.66
2022-10-01T06:40:51.408Z,99969.66
2022-10-01T06:43:17.775Z,99980.78
2022-10-01T06:45:44.157Z,99976.47
2022-10-01T06:48:13.196Z,99988.38
2022-10-01T06:50:39.826Z,99983.31
2022-10-01T06:53:07.488Z,99991.34
2022-10-01T06:55:34.981Z,99993.06
2022-10-01T06:58:01.971Z,100000.97
2022-10-01T07:00:29.250Z,99997.91
2022-10-01T07:02:55.895Z,99993.19
2022-10-01T07:05:22.410Z,100000.63
2022-10-01T07:07:48.714Z,99996.97
2022-10-01T07:10:17.186Z,100001.69
2022-10-01T07:12:43.494Z,100007.13
2022-10-01T07:15:09.836Z,100003.66
2022-10-01T07:17:42.682Z,100000.66
2022-10-01T07:20:09.259Z,99999.16
2022-10-01T07:22:35.532Z,100008.25
2022-10-01T07:25:01.847Z,100009.50
2022-10-01T07:27:29.472Z,100007.09
2022-10-01T07:29:55.751Z,100009.38
2022-10-01T07:32:22.017Z,100013.53
2022-10-01T07:34:48.315Z,100013.81
2022-10-01T07:37:14.585Z,100018.16
2022-10-01T07:39:40.860Z,100017.78
2022-10-01T07:42:07.146Z,100007.94
2022-10-01T07:44:34.766Z,100022.75
2022-10-01T07:47:01.074Z,100037.09
2022-10-01T07:49:27.386Z,100044.47
2022-10-01T07:51:54.216Z,100041.38
2022-10-01T07:54:20.577Z,100045.25
2022-10-01T07:56:46.952Z,100042.97
2022-10-01T07:59:13.260Z,100056.31
2022-10-01T08:01:40.903Z,100051.19
2022-10-01T08:04:07.256Z,100061.66
2022-10-01T08:06:33.557Z,100066.59
2022-10-01T08:08:59.853Z,100069.25
2022-10-01T08:11:26.139Z,100067.22
2022-10-01T08:13:52.402Z,100071.34
2022-10-01T08:16:18.751Z,100074.66
2022-10-01T08:18:46.410Z,100085.75
2022-10-01T08:21:12.688Z,100092.13
2022-10-01T08:23:38.971Z,100092.94
2022-10-01T08:26:06.349Z,100093.75
2022-10-01T08:28:32.732Z,100093.75
2022-10-01T08:30:59.058Z,100101.56
2022-10-01T08:33:25.340Z,100108.75
2022-10-01T08:35:52.960Z,100117.03
2022-10-01T08:38:19.228Z,100119.06
2022-10-01T08:40:46.547Z,100117.22
2022-10-01T08:43:18.031Z,100111.88
2022-10-01T08:45:45.692Z,100104.13
2022-10-01T08:48:16.476Z,100113.00
2022-10-01T08:50:46.709Z,100113.44
2022-10-01T08:53:16.407Z,100117.34
2022-10-01T08:55:43.673Z,100117.97
2022-10-01T08:58:11.733Z,100128.09
2022-10-01T09:00:39.775Z,100128.09
2022-10-01T09:03:07.059Z,100132.81
2022-10-01T09:05:38.290Z,100139.63
2022-10-01T09:08:09.368Z,100133.91
2022-10-01T09:10:43.215Z,100139.44
2022-10-01T09:13:22.509Z,100145.34
2022-10-01T09:15:50.929Z,100142.69
2022-10-01T09:18:25.317Z,100155.50
2022-10-01T09:20:53.638Z,100148.59
2022-10-01T09:23:24.554Z,100149.25
2022-10-01T09:25:52.143Z,100157.16
2022-10-01T09:28:20.059Z,100160.50
2022-10-01T09:30:50.360Z,100164.25
2022-10-01T09:33:17.989Z,100161.41
2022-10-01T09:35:46.473Z,100162.91
2022-10-01T09:38:15.638Z,100167.06
2022-10-01T09:40:46.259Z,100168.72
2022-10-01T09:43:13.904Z,100174.75
2022-10-01T09:45:40.409Z,100172.94
2022-10-01T09:48:14.463Z,100180.56
2022-10-01T09:50:42.845Z,100183.25
2022-10-01T09:53:13.349Z,100183.84
2022-10-01T09:55:41.669Z,100179.75
2022-10-01T09:58:09.347Z,100180.16
2022-10-01T10:00:38.426Z,100187.16
2022-10-01T10:03:04.990Z,100183.03
2022-10-01T10:05:40.266Z,100179.75
2022-10-01T10:08:11.609Z,100191.69
2022-10-01T10:10:39.154Z,100191.28
2022-10-01T10:13:17.793Z,100202.22
2022-10-01T10:15:50.799Z,100202.84
2022-10-01T10:18:24.074Z,100205.09
2022-10-01T10:20:52.314Z,100211.47
2022-10-01T10:23:19.923Z,100224.88
2022-10-01T10:25:54.195Z,100223.03
2022-10-01T10:28:21.922Z,100229.59
2022-10-01T10:30:49.931Z,100227.31
2022-10-01T10:33:17.095Z,100221.31
2022-10-01T10:35:43.371Z,100221.28
2022-10-01T10:38:17.737Z,100239.88
2022-10-01T10:40:45.413Z,100245.19
2022-10-01T10:43:18.249Z,100245.97
2022-10-01T10:45:44.580Z,100258.53
2022-10-01T10:48:16.657Z,100256.22
2022-10-01T10:50:44.188Z,100259.47
2022-10-01T10:53:18.227Z,100261.06
2022-10-01T10:55:52.792Z,100258.59
2022-10-01T10:58:19.090Z,100259.47
2022-10-01T11:00:47.112Z,100248.66
2022-10-01T11:03:16.904Z,100246.13
2022-10-01T11:05:43.480Z,100256.19
2022-10-01T11:08:16.878Z,100263.84
2022-10-01T11:10:48.173Z,100274.75
2022-10-01T11:13:26.987Z,100279.53
2022-10-01T11:16:17.522Z,100286.84
2022-10-01T11:18:54.050Z,100285.50
2022-10-01T11:21:32.633Z,100286.41
2022-10-01T11:24:12.161Z,100287.28
2022-10-01T11:26:43.176Z,100296.38
2022-10-01T11:29:17.125Z,100307.34
2022-10-01T11:31:47.087Z,100311.25
2022-10-01T11:34:28.681Z,100304.63
2022-10-01T11:36:59.184Z,100317.63
2022-10-01T11:39:26.866Z,100309.56
2022-10-01T11:41:56.214Z,100307.88
2022-10-01T11:44:26.143Z,100309.72
2022-10-01T11:46:55.209Z,100306.38
2022-10-01T11:49:37.099Z,100325.03
2022-10-01T11:52:07.305Z,100324.84
2022-10-01T11:54:34.948Z,100327.72
2022-10-01T11:57:03.778Z,100325.06
2022-10-01T11:59:33.785Z,100338.25
2022-10-01T12:02:04.916Z,100340.72
2022-10-01T12:04:34.587Z,100326.41
2022-10-01T12:07:04.416Z,100339.25
2022-10-01T12:09:36.229Z,100330.13
2022-10-01T12:12:04.396Z,100333.19
2022-10-01T12:14:35.262Z,100339.97
2022-10-01T12:17:09.494Z,100336.41
2022-10-01T12:19:39.249Z,100343.00
2022-10-01T12:22:10.389Z,100350.63
2022-10-01T12:24:40.217Z,100350.59
2022-10-01T12:27:26.651Z,100357.13
2022-10-01T12:29:56.789Z,100350.00
2022-10-01T12:32:28.943Z,100360.94
2022-10-01T12:35:02.975Z,100369.25
2022-10-01T12:37:35.554Z,100369.06
2022-10-01T12:40:09.821Z,100368.44
2022-10-01T12:42:42.397Z,100390.94
2022-10-01T12:45:13.282Z,100394.13
2022-10-01T12:47:43.951Z,100394.81
2022-10-01T12:50:17.091Z,100387.41
2022-10-01T12:52:49.999Z,100389.03
2022-10-01T12:55:39.616Z,100400.28
2022-10-01T12:58:11.278Z,100402.81
2022-10-01T13:00:41.380Z,100400.28
2022-10-01T13:03:28.884Z,100393.97
2022-10-01T13:06:10.455Z,100398.91
2022-10-01T13:08:44.773Z,100415.22
2022-10-01T13:11:16.369Z,100419.34
2022-10-01T13:13:42.679Z,100417.06
2022-10-01T13:16:10.832Z,100430.91
2022-10-01T13:18:45.723Z,100431.28
2022-10-01T13:21:18.326Z,100437.31
2022-10-01T13:23:47.831Z,100436.28
2022-10-01T13:26:16.797Z,100440.00
2022-10-01T13:28:51.826Z,100448.63
2022-10-01T13:31:18.259Z,100449.91
2022-10-01T13:33:53.552Z,100446.56
2022-10-01T13:36:28.067Z,100452.16
2022-10-01T13:38:54.350Z,100465.16
2022-10-01T13:41:21.872Z,100474.22
2022-10-01T13:43:49.787Z,100487.22
2022-10-01T13:46:16.127Z,100486.19
2022-10-01T13:48:46.274Z,100487.84
2022-10-01T13:51:13.744Z,100484.56
2022-10-01T13:53:47.500Z,100496.91
2022-10-01T13:56:25.424Z,100490.34
2022-10-01T13:58:51.717Z,100496.13
2022-10-01T14:01:28.476Z,100507.50
2022-10-01T14:03:58.425Z,100512.25
2022-10-01T14:06:27.740Z,100513.06
2022-10-01T14:08:59.898Z,100519.44
2022-10-01T14:11:27.459Z,100509.75
2022-10-01T14:13:54.149Z,100525.44
2022-10-01T14:16:20.749Z,100520.03
2022-10-01T14:18:48.600Z,100524.59
2022-10-01T14:21:28.761Z,100529.09
2022-10-01T14:24:01.115Z,100530.28
2022-10-01T14:26:31.162Z,100539.91
2022-10-01T14:29:03.262Z,100541.56
2022-10-01T14:31:37.142Z,100546.78
2022-10-01T14:34:14.889Z,100544.22
2022-10-01T14:36:42.047Z,100544.22
2022-10-01T14:39:14.033Z,100553.72
2022-10-01T14:41:40.360Z,100555.75
2022-10-01T14:44:17.664Z,100554.75
2022-10-01T14:46:44.001Z,100555.56
2022-10-01T14:49:18.340Z,100554.34
2022-10-01T14:51:49.757Z,100565.28
2022-10-01T14:54:17.498Z,100564.69
2022-10-01T14:56:43.840Z,100561.56
2022-10-01T14:59:17.193Z,100566.75
2022-10-01T15:01:53.447Z,100578.50
2022-10-01T15:04:21.245Z,100583.47
2022-10-01T15:06:47.631Z,100575.00
2022-10-01T15:09:14.677Z,100568.19
2022-10-01T15:11:44.587Z,100572.31
2022-10-01T15:14:14.481Z,100580.78
2022-10-01T15:16:40.842Z,100581.22
2022-10-01T15:19:08.689Z,100581.63
2022-10-01T15:21:37.065Z,100587.81
2022-10-01T15:24:04.652Z,100589.88
2022-10-01T15:26:31.681Z,100597.31
2022-10-01T15:29:03.499Z,100606.41
2022-10-01T15:31:30.192Z,100618.19
2022-10-01T15:33:56.865Z,100610.53
2022-10-01T15:36:25.137Z,100621.28
2022-10-01T15:38:51.536Z,100619.19
2022-10-01T15:41:31.654Z,100614.47
2022-10-01T15:43:59.399Z,100628.94
2022-10-01T15:46:30.173Z,100630.34
2022-10-01T15:49:11.011Z,100630.56
2022-10-01T15:51:43.231Z,100639.84
2022-10-01T15:54:12.989Z,100640.03
2022-10-01T15:56:39.456Z,100643.94
2022-10-01T15:59:11.184Z,100648.88
2022-10-01T16:01:40.150Z,100648.47
2022-10-01T16:04:07.794Z,100662.50
2022-10-01T16:06:36.322Z,100666.63
2022-10-01T16:09:05.132Z,100670.00
2022-10-01T16:11:33.185Z,100667.75
2022-10-01T16:14:20.742Z,100678.22
2022-10-01T16:16:48.539Z,100681.66
2022-10-01T16:19:22.745Z,100681.72
2022-10-01T16:22:03.915Z,100682.88
2022-10-01T16:24:40.823Z,100690.84
2022-10-01T16:27:12.244Z,100694.91
2022-10-01T16:29:39.463Z,100705.94
2022-10-01T16:32:08.715Z,100703.03
2022-10-01T16:34:35.055Z,100707.00
2022-10-01T16:37:02.144Z,100710.31
2022-10-01T16:39:28.401Z,100714.75
2022-10-01T16:42:18.973Z,100719.44
2022-10-01T16:44:40.989Z,100737.13
2022-10-01T16:47:10.836Z,100734.31
2022-10-01T16:49:37.446Z,100726.66
2022-10-01T16:52:04.170Z,100740.38
2022-10-01T16:54:30.468Z,100744.66
2022-10-01T16:56:56.754Z,100753.13
2022-10-01T16:59:23.356Z,100746.63
2022-10-01T17:01:49.843Z,100757.22
2022-10-01T17:04:17.486Z,100759.16
2022-10-01T17:06:43.806Z,100767.59
2022-10-01T17:09:10.105Z,100765.38
2022-10-01T17:11:36.444Z,100765.94
2022-10-01T17:14:02.713Z,100780.28
2022-10-01T17:16:29.176Z,100786.19
2022-10-01T17:18:55.500Z,100786.59
2022-10-01T17:21:23.250Z,100786.03
2022-10-01T17:23:53.391Z,100797.19
2022-10-01T17:26:19.959Z,100798.28
2022-10-01T17:28:49.193Z,100802.53
2022-10-01T17:31:17.852Z,100807.59
2022-10-01T17:33:44.558Z,100811.91
2022-10-01T17:36:11.052Z,100817.53
2022-10-01T17:38:38.692Z,100823.63
2022-10-01T17:41:05.047Z,100826.13
2022-10-01T17:43:31.394Z,100831.72
2022-10-01T17:45:58.487Z,100831.16
2022-10-01T17:48:25.162Z,100827.06
2022-10-01T17:50:57.824Z,100841.66
2022-10-01T17:53:24.122Z,100851.59
2022-10-01T17:55:51.757Z,100851.44
2022-10-01T17:58:18.060Z,100853.47
2022-10-01T18:00:44.506Z,100856.59
2022-10-01T18:03:10.934Z,100864.09
2022-10-01T18:05:37.250Z,100862.25
2022-10-01T18:08:03.559Z,100862.44
2022-10-01T18:10:29.838Z,100864.63
2022-10-01T18:12:57.459Z,100881.66
2022-10-01T18:15:23.756Z,100876.84
2022-10-01T18:17:51.609Z,100898.06
2022-10-01T18:20:18.919Z,100893.78
2022-10-01T18:22:45.209Z,100906.00
2022-10-01T18:25:11.505Z,100896.81
2022-10-01T18:27:37.806Z,100910.22
2022-10-01T18:30:06.049Z,100904.09
2022-10-01T18:32:37.355Z,100923.59
2022-10-01T18:35:05.801Z,100915.63
2022-10-01T18:37:37.624Z,100920.47
2022-10-01T18:40:07.794Z,100921.78
2022-10-01T18:42:40.851Z,100923.44
2022-10-01T18:45:13.328Z,100925.81
2022-10-01T18:47:43.530Z,100925.84
2022-10-01T18:50:20.086Z,100930.81
2022-10-01T18:52:54.703Z,100936.00
2022-10-01T18:55:32.112Z,100935.19
2022-10-01T18:58:07.273Z,100933.34
2022-10-01T19:00:40.014Z,100941.34
2022-10-01T19:03:21.685Z,100952.00
2022-10-01T19:06:08.360Z,100948.34
2022-10-01T19:08:45.561Z,100951.84
2022-10-01T19:11:18.132Z,100953.84
2022-10-01T19:13:48.349Z,100951.50
2022-10-01T19:16:22.656Z,100952.66
2022-10-01T19:18:59.596Z,100960.16
2022-10-01T19:21:29.419Z,100960.50
2022-10-01T19:24:06.225Z,100964.31
2022-10-01T19:26:36.092Z,100976.50
2022-10-01T19:29:08.398Z,100978.66
2022-10-01T19:31:41.564Z,100977.28
2022-10-01T19:34:09.768Z,100981.47
2022-10-01T19:36:38.350Z,100977.28
2022-10-01T19:39:10.474Z,100982.09
2022-10-01T19:41:38.910Z,100973.47
2022-10-01T19:44:09.595Z,100979.13
2022-10-01T19:46:38.658Z,100981.09
2022-10-01T19:49:14.671Z,100990.94
2022-10-01T19:51:51.445Z,100988.41
2022-10-01T19:54:18.500Z,100987.44
2022-10-01T19:56:46.898Z,100998.09
2022-10-01T19:59:14.333Z,100997.41
2022-10-01T20:01:46.915Z,100994.59
2022-10-01T20:04:16.986Z,100997.25
2022-10-01T20:06:46.020Z,100997.41
2022-10-01T20:09:17.341Z,101007.56
2022-10-01T20:11:47.528Z,101008.72
2022-10-01T20:14:21.496Z,101008.38
2022-10-01T20:16:51.644Z,101014.03
2022-10-01T20:19:24.247Z,101013.69
2022-10-01T20:21:57.737Z,101016.16
2022-10-01T20:24:34.803Z,101019.81
2022-10-01T20:27:05.445Z,101019.13
2022-10-01T20:29:35.458Z,101022.28
2022-10-01T20:32:06.319Z,101020.94
2022-10-01T20:34:36.980Z,101028.56
2022-10-01T20:37:09.955Z,101041.19
2022-10-01T20:39:40.281Z,101033.84
2022-10-01T20:42:10.934Z,101030.78
2022-10-01T20:44:37.856Z,101036.94
2022-10-01T20:47:11.039Z,101037.09
2022-10-01T20:49:39.962Z,101043.25
2022-10-01T20:52:10.188Z,101035.63
2022-10-01T20:54:39.423Z,101040.78
2022-10-01T20:57:09.762Z,101047.16
2022-10-01T20:59:39.218Z,101045.84
2022-10-01T21:02:17.582Z,101053.19
2022-10-01T21:04:48.435Z,101052.88
2022-10-01T21:07:25.313Z,101056.72
2022-10-01T21:09:54.611Z,101062.03
2022-10-01T21:12:22.565Z,101068.56
2022-10-01T21:14:52.123Z,101068.41
2022-10-01T21:17:26.657Z,101066.41
2022-10-01T21:20:01.020Z,101079.06
2022-10-01T21:22:34.052Z,101078.38
2022-10-01T21:25:03.129Z,101083.22
2022-10-01T21:27:35.858Z,101082.75
2022-10-01T21:30:04.630Z,101088.41
2022-10-01T21:32:39.462Z,101086.97
2022-10-01T21:35:14.442Z,101083.63
2022-10-01T21:37:41.533Z,101087.97
2022-10-01T21:40:12.446Z,101094.28
2022-10-01T21:42:43.644Z,101099.63
2022-10-01T21:45:16.018Z,101099.31
2022-10-01T21:47:51.111Z,101102.81
2022-10-01T21:50:21.592Z,101105.84
2022-10-01T21:52:54.269Z,101105.00
2022-10-01T21:55:38.570Z,101110.31
2022-10-01T21:58:12.286Z,101115.66
2022-10-01T22:00:38.645Z,101118.47
2022-10-01T22:03:15.646Z,101126.63
2022-10-01T22:05:45.950Z,101122.66
2022-10-01T22:08:18.038Z,101126.31
2022-10-01T22:10:46.261Z,101131.63
2022-10-01T22:13:15.962Z,101134.31
2022-10-01T22:15:44.042Z,101135.13
2022-10-01T22:18:11.934Z,101130.47
2022-10-01T22:20:42.054Z,101134.78
2022-10-01T22:23:09.540Z,101130.97
2022-10-01T22:25:40.298Z,101135.31
2022-10-01T22:28:09.389Z,101128.16
2022-10-01T22:30:38.515Z,101128.63
2022-10-01T22:33:08.154Z,101130.81
2022-10-01T22:35:39.512Z,101137.75
2022-10-01T22:38:11.032Z,101136.88
2022-10-01T22:40:39.531Z,101137.19
2022-10-01T22:43:08.128Z,101142.16
2022-10-01T22:45:43.244Z,101138.97
2022-10-01T22:48:17.899Z,101146.63
2022-10-01T22:50:52.684Z,101141.75
2022-10-01T22:53:27.978Z,101150.44
2022-10-01T22:55:54.757Z,101158.63
2022-10-01T22:58:33.044Z,101146.13
2022-10-01T23:01:02.657Z,101157.31
2022-10-01T23:03:36.471Z,101152.53
2022-10-01T23:06:06.226Z,101157.34
2022-10-01T23:08:38.712Z,101149.06
2022-10-01T23:11:11.163Z,101158.75
2022-10-01T23:13:42.054Z,101161.78
2022-10-01T23:16:12.769Z,101159.94
2022-10-01T23:18:41.050Z,101154.09
2022-10-01T23:21:13.496Z,101157.44
2022-10-01T23:23:42.478Z,101162.94
2022-10-01T23:26:21.669Z,101152.28
2022-10-01T23:28:53.933Z,101155.09
2022-10-01T23:31:25.839Z,101156.91
2022-10-01T23:33:59.792Z,101157.75
2022-10-01T23:36:30.955Z,101159.28
2022-10-01T23:39:08.346Z,101163.44
2022-10-01T23:41:38.805Z,101161.28
2022-10-01T23:44:08.605Z,101153.97
2022-10-01T23:46:36.015Z,101160.97
2022-10-01T23:49:05.876Z,101170.63
2022-10-01T23:51:34.411Z,101169.31
2022-10-01T23:54:04.775Z,101166.47
2022-10-01T23:56:36.354Z,101174.31
2022-10-01T23:59:05.305Z,101172.19
